sensor_id;sensor_type;location;lat;lon;timestamp;P1;durP1;ratioP1;P2;durP2;ratioP2
7737;SDS011;29398;45.328;5.558;2023-03-30T00:00:44;17.10;;;6.03;;
7737;SDS011;29398;45.328;5.558;2023-03-30T00:01:46;21.08;;;5.18;;
7737;SDS011;29398;45.328;5.558;2023-03-30T00:02:48;21.98;;;6.03;;
7737;SDS011;29398;45.328;5.558;2023-03-30T00:03:52;20.67;;;6.30;;
7737;SDS011;29398;45.328;5.558;2023-03-30T00:04:54;18.50;;;5.38;;
7737;SDS011;29398;45.328;5.558;2023-03-30T00:06:02;11.07;;;5.40;;
7737;SDS011;29398;45.328;5.558;2023-03-30T00:07:04;18.75;;;5.55;;
7737;SDS011;29398;45.328;5.558;2023-03-30T00:08:07;15.00;;;5.70;;
7737;SDS011;29398;45.328;5.558;2023-03-30T00:09:08;13.00;;;5.30;;
7737;SDS011;29398;45.328;5.558;2023-03-30T00:10:11;16.10;;;5.68;;
7737;SDS011;29398;45.328;5.558;2023-03-30T00:11:16;20.50;;;5.57;;
7737;SDS011;29398;45.328;5.558;2023-03-30T00:12:22;19.17;;;5.45;;
7737;SDS011;29398;45.328;5.558;2023-03-30T00:13:24;15.07;;;5.43;;
7737;SDS011;29398;45.328;5.558;2023-03-30T00:14:27;11.45;;;4.72;;
7737;SDS011;29398;45.328;5.558;2023-03-30T00:15:28;17.75;;;5.55;;
7737;SDS011;29398;45.328;5.558;2023-03-30T00:16:30;17.83;;;5.85;;
7737;SDS011;29398;45.328;5.558;2023-03-30T00:17:32;15.35;;;5.47;;
7737;SDS011;29398;45.328;5.558;2023-03-30T00:18:34;15.05;;;5.40;;
7737;SDS011;29398;45.328;5.558;2023-03-30T00:19:35;16.88;;;5.75;;
7737;SDS011;29398;45.328;5.558;2023-03-30T00:20:38;14.85;;;5.55;;
7737;SDS011;29398;45.328;5.558;2023-03-30T00:21:42;17.38;;;5.60;;
7737;SDS011;29398;45.328;5.558;2023-03-30T00:22:44;15.93;;;5.45;;
7737;SDS011;29398;45.328;5.558;2023-03-30T00:23:47;17.45;;;5.15;;
7737;SDS011;29398;45.328;5.558;2023-03-30T00:24:51;13.88;;;4.72;;
7737;SDS011;29398;45.328;5.558;2023-03-30T00:25:54;14.05;;;5.47;;
7737;SDS011;29398;45.328;5.558;2023-03-30T00:26:59;15.55;;;5.22;;
7737;SDS011;29398;45.328;5.558;2023-03-30T00:28:03;19.00;;;5.22;;
7737;SDS011;29398;45.328;5.558;2023-03-30T00:29:07;17.60;;;5.53;;
7737;SDS011;29398;45.328;5.558;2023-03-30T00:30:10;15.45;;;4.95;;
7737;SDS011;29398;45.328;5.558;2023-03-30T00:31:14;15.93;;;5.13;;
7737;SDS011;29398;45.328;5.558;2023-03-30T00:32:16;22.55;;;5.68;;
7737;SDS011;29398;45.328;5.558;2023-03-30T00:33:19;17.88;;;5.00;;
7737;SDS011;29398;45.328;5.558;2023-03-30T00:34:21;17.70;;;4.93;;
7737;SDS011;29398;45.328;5.558;2023-03-30T00:35:25;14.15;;;5.22;;
7737;SDS011;29398;45.328;5.558;2023-03-30T00:36:29;18.10;;;5.20;;
7737;SDS011;29398;45.328;5.558;2023-03-30T00:37:36;15.20;;;4.72;;
7737;SDS011;29398;45.328;5.558;2023-03-30T00:38:38;14.18;;;4.95;;
7737;SDS011;29398;45.328;5.558;2023-03-30T00:39:41;16.25;;;5.32;;
7737;SDS011;29398;45.328;5.558;2023-03-30T00:40:49;13.13;;;4.60;;
7737;SDS011;29398;45.328;5.558;2023-03-30T00:41:52;17.83;;;4.55;;
7737;SDS011;29398;45.328;5.558;2023-03-30T00:42:56;12.13;;;4.68;;
7737;SDS011;29398;45.328;5.558;2023-03-30T00:44:01;11.70;;;4.60;;
7737;SDS011;29398;45.328;5.558;2023-03-30T00:45:21;15.63;;;4.75;;
7737;SDS011;29398;45.328;5.558;2023-03-30T00:46:24;13.25;;;4.57;;
7737;SDS011;29398;45.328;5.558;2023-03-30T00:47:26;16.75;;;4.32;;
7737;SDS011;29398;45.328;5.558;2023-03-30T00:48:30;12.05;;;4.03;;
7737;SDS011;29398;45.328;5.558;2023-03-30T00:49:35;15.00;;;4.68;;
7737;SDS011;29398;45.328;5.558;2023-03-30T00:50:38;19.45;;;5.15;;
7737;SDS011;29398;45.328;5.558;2023-03-30T00:51:42;12.55;;;4.28;;
7737;SDS011;29398;45.328;5.558;2023-03-30T00:52:44;13.68;;;4.38;;
7737;SDS011;29398;45.328;5.558;2023-03-30T00:53:48;15.57;;;4.40;;
7737;SDS011;29398;45.328;5.558;2023-03-30T00:54:52;14.10;;;4.32;;
7737;SDS011;29398;45.328;5.558;2023-03-30T00:55:56;17.55;;;4.95;;
7737;SDS011;29398;45.328;5.558;2023-03-30T00:57:00;12.13;;;3.90;;
7737;SDS011;29398;45.328;5.558;2023-03-30T00:58:04;16.80;;;4.20;;
7737;SDS011;29398;45.328;5.558;2023-03-30T00:59:09;16.48;;;4.53;;
7737;SDS011;29398;45.328;5.558;2023-03-30T01:00:10;16.83;;;4.57;;
7737;SDS011;29398;45.328;5.558;2023-03-30T01:01:15;12.57;;;3.97;;
7737;SDS011;29398;45.328;5.558;2023-03-30T01:02:18;14.10;;;4.03;;
7737;SDS011;29398;45.328;5.558;2023-03-30T01:03:21;13.90;;;4.10;;
7737;SDS011;29398;45.328;5.558;2023-03-30T01:04:26;12.60;;;3.83;;
7737;SDS011;29398;45.328;5.558;2023-03-30T01:05:28;14.10;;;4.63;;
7737;SDS011;29398;45.328;5.558;2023-03-30T01:06:31;14.38;;;4.45;;
7737;SDS011;29398;45.328;5.558;2023-03-30T01:07:35;12.55;;;4.60;;
7737;SDS011;29398;45.328;5.558;2023-03-30T01:08:38;12.30;;;4.30;;
7737;SDS011;29398;45.328;5.558;2023-03-30T01:09:41;13.32;;;3.95;;
7737;SDS011;29398;45.328;5.558;2023-03-30T01:10:44;14.55;;;4.03;;
7737;SDS011;29398;45.328;5.558;2023-03-30T01:11:47;14.05;;;4.78;;
7737;SDS011;29398;45.328;5.558;2023-03-30T01:12:48;15.38;;;3.88;;
7737;SDS011;29398;45.328;5.558;2023-03-30T01:13:51;18.30;;;4.65;;
7737;SDS011;29398;45.328;5.558;2023-03-30T01:14:57;18.55;;;4.80;;
7737;SDS011;29398;45.328;5.558;2023-03-30T01:16:02;14.90;;;4.25;;
7737;SDS011;29398;45.328;5.558;2023-03-30T01:17:15;15.95;;;4.03;;
7737;SDS011;29398;45.328;5.558;2023-03-30T01:18:28;18.08;;;4.53;;
7737;SDS011;29398;45.328;5.558;2023-03-30T01:19:40;13.32;;;4.10;;
7737;SDS011;29398;45.328;5.558;2023-03-30T01:23:08;11.02;;;4.07;;
7737;SDS011;29398;45.328;5.558;2023-03-30T01:24:38;12.77;;;4.20;;
7737;SDS011;29398;45.328;5.558;2023-03-30T01:26:15;13.98;;;3.67;;
7737;SDS011;29398;45.328;5.558;2023-03-30T01:27:38;14.33;;;3.80;;
7737;SDS011;29398;45.328;5.558;2023-03-30T01:28:51;14.27;;;4.05;;
7737;SDS011;29398;45.328;5.558;2023-03-30T01:30:05;11.70;;;3.55;;
7737;SDS011;29398;45.328;5.558;2023-03-30T01:31:50;12.25;;;3.75;;
7737;SDS011;29398;45.328;5.558;2023-03-30T01:33:30;12.77;;;3.60;;
7737;SDS011;29398;45.328;5.558;2023-03-30T01:34:48;12.85;;;3.70;;
7737;SDS011;29398;45.328;5.558;2023-03-30T01:37:42;12.18;;;3.50;;
7737;SDS011;29398;45.328;5.558;2023-03-30T01:39:12;13.02;;;3.60;;
7737;SDS011;29398;45.328;5.558;2023-03-30T01:40:26;14.98;;;3.97;;
7737;SDS011;29398;45.328;5.558;2023-03-30T01:41:32;13.43;;;3.85;;
7737;SDS011;29398;45.328;5.558;2023-03-30T01:42:38;16.30;;;4.28;;
7737;SDS011;29398;45.328;5.558;2023-03-30T01:43:47;11.70;;;3.53;;
7737;SDS011;29398;45.328;5.558;2023-03-30T01:44:59;15.73;;;3.63;;
7737;SDS011;29398;45.328;5.558;2023-03-30T01:46:10;14.80;;;3.97;;
7737;SDS011;29398;45.328;5.558;2023-03-30T01:47:20;16.50;;;4.05;;
7737;SDS011;29398;45.328;5.558;2023-03-30T01:48:26;13.10;;;3.15;;
7737;SDS011;29398;45.328;5.558;2023-03-30T01:49:36;12.27;;;3.47;;
7737;SDS011;29398;45.328;5.558;2023-03-30T01:50:44;12.60;;;4.03;;
7737;SDS011;29398;45.328;5.558;2023-03-30T01:51:51;11.15;;;3.17;;
7737;SDS011;29398;45.328;5.558;2023-03-30T01:53:03;12.82;;;3.53;;
7737;SDS011;29398;45.328;5.558;2023-03-30T01:54:11;11.45;;;3.25;;
7737;SDS011;29398;45.328;5.558;2023-03-30T01:55:17;14.02;;;3.95;;
7737;SDS011;29398;45.328;5.558;2023-03-30T01:56:23;15.70;;;4.28;;
7737;SDS011;29398;45.328;5.558;2023-03-30T01:57:29;8.15;;;3.10;;
7737;SDS011;29398;45.328;5.558;2023-03-30T01:58:36;11.57;;;3.30;;
7737;SDS011;29398;45.328;5.558;2023-03-30T01:59:44;12.27;;;3.55;;
7737;SDS011;29398;45.328;5.558;2023-03-30T02:00:55;14.48;;;3.70;;
7737;SDS011;29398;45.328;5.558;2023-03-30T02:01:59;13.05;;;3.40;;
7737;SDS011;29398;45.328;5.558;2023-03-30T02:03:07;13.73;;;3.25;;
7737;SDS011;29398;45.328;5.558;2023-03-30T02:04:12;15.88;;;3.50;;
7737;SDS011;29398;45.328;5.558;2023-03-30T02:05:15;11.02;;;3.15;;
7737;SDS011;29398;45.328;5.558;2023-03-30T02:06:20;9.88;;;3.22;;
7737;SDS011;29398;45.328;5.558;2023-03-30T02:07:28;11.48;;;3.10;;
7737;SDS011;29398;45.328;5.558;2023-03-30T02:08:31;14.18;;;2.97;;
7737;SDS011;29398;45.328;5.558;2023-03-30T02:09:38;10.35;;;3.10;;
7737;SDS011;29398;45.328;5.558;2023-03-30T02:10:42;12.90;;;3.20;;
7737;SDS011;29398;45.328;5.558;2023-03-30T02:11:46;10.23;;;3.05;;
7737;SDS011;29398;45.328;5.558;2023-03-30T02:12:49;16.17;;;3.78;;
7737;SDS011;29398;45.328;5.558;2023-03-30T02:13:51;16.85;;;3.65;;
7737;SDS011;29398;45.328;5.558;2023-03-30T02:14:58;14.00;;;3.50;;
7737;SDS011;29398;45.328;5.558;2023-03-30T02:16:05;15.98;;;3.80;;
7737;SDS011;29398;45.328;5.558;2023-03-30T02:17:19;14.63;;;3.67;;
7737;SDS011;29398;45.328;5.558;2023-03-30T02:18:22;15.18;;;3.45;;
7737;SDS011;29398;45.328;5.558;2023-03-30T02:19:24;14.63;;;3.15;;
7737;SDS011;29398;45.328;5.558;2023-03-30T02:20:27;12.88;;;3.15;;
7737;SDS011;29398;45.328;5.558;2023-03-30T02:21:29;10.93;;;2.88;;
7737;SDS011;29398;45.328;5.558;2023-03-30T02:22:32;8.45;;;2.88;;
7737;SDS011;29398;45.328;5.558;2023-03-30T02:23:34;8.45;;;3.10;;
7737;SDS011;29398;45.328;5.558;2023-03-30T02:24:40;9.95;;;2.97;;
7737;SDS011;29398;45.328;5.558;2023-03-30T02:25:47;12.68;;;3.00;;
7737;SDS011;29398;45.328;5.558;2023-03-30T02:26:51;16.50;;;3.95;;
7737;SDS011;29398;45.328;5.558;2023-03-30T02:27:55;11.15;;;3.15;;
7737;SDS011;29398;45.328;5.558;2023-03-30T02:28:56;13.30;;;3.00;;
7737;SDS011;29398;45.328;5.558;2023-03-30T02:30:01;10.70;;;2.72;;
7737;SDS011;29398;45.328;5.558;2023-03-30T02:31:03;14.25;;;3.10;;
7737;SDS011;29398;45.328;5.558;2023-03-30T02:32:13;12.23;;;3.20;;
7737;SDS011;29398;45.328;5.558;2023-03-30T02:33:19;13.15;;;3.10;;
7737;SDS011;29398;45.328;5.558;2023-03-30T02:34:29;10.85;;;3.03;;
7737;SDS011;29398;45.328;5.558;2023-03-30T02:35:48;9.02;;;2.58;;
7737;SDS011;29398;45.328;5.558;2023-03-30T02:37:02;13.85;;;2.65;;
7737;SDS011;29398;45.328;5.558;2023-03-30T02:40:05;11.35;;;3.03;;
7737;SDS011;29398;45.328;5.558;2023-03-30T02:41:17;13.38;;;3.03;;
7737;SDS011;29398;45.328;5.558;2023-03-30T02:42:33;8.68;;;2.35;;
7737;SDS011;29398;45.328;5.558;2023-03-30T02:43:53;11.40;;;3.05;;
7737;SDS011;29398;45.328;5.558;2023-03-30T02:45:08;13.02;;;2.90;;
7737;SDS011;29398;45.328;5.558;2023-03-30T02:46:22;16.17;;;3.25;;
7737;SDS011;29398;45.328;5.558;2023-03-30T02:47:35;13.10;;;2.90;;
7737;SDS011;29398;45.328;5.558;2023-03-30T02:48:43;13.35;;;3.28;;
7737;SDS011;29398;45.328;5.558;2023-03-30T02:49:56;12.73;;;3.20;;
7737;SDS011;29398;45.328;5.558;2023-03-30T02:51:08;11.20;;;2.70;;
7737;SDS011;29398;45.328;5.558;2023-03-30T02:52:44;8.88;;;2.35;;
7737;SDS011;29398;45.328;5.558;2023-03-30T02:53:56;8.23;;;2.60;;
7737;SDS011;29398;45.328;5.558;2023-03-30T02:55:45;11.45;;;3.40;;
7737;SDS011;29398;45.328;5.558;2023-03-30T02:57:08;10.98;;;2.88;;
7737;SDS011;29398;45.328;5.558;2023-03-30T02:58:14;10.57;;;3.10;;
7737;SDS011;29398;45.328;5.558;2023-03-30T02:59:44;9.45;;;2.63;;
7737;SDS011;29398;45.328;5.558;2023-03-30T03:00:52;12.07;;;2.72;;
7737;SDS011;29398;45.328;5.558;2023-03-30T03:02:08;9.50;;;3.08;;
7737;SDS011;29398;45.328;5.558;2023-03-30T03:03:18;8.98;;;2.20;;
7737;SDS011;29398;45.328;5.558;2023-03-30T03:04:24;13.55;;;3.22;;
7737;SDS011;29398;45.328;5.558;2023-03-30T03:05:48;7.55;;;2.55;;
7737;SDS011;29398;45.328;5.558;2023-03-30T03:06:59;11.68;;;2.72;;
7737;SDS011;29398;45.328;5.558;2023-03-30T03:08:02;9.07;;;2.45;;
7737;SDS011;29398;45.328;5.558;2023-03-30T03:09:05;11.90;;;2.45;;
7737;SDS011;29398;45.328;5.558;2023-03-30T03:10:08;7.00;;;2.50;;
7737;SDS011;29398;45.328;5.558;2023-03-30T03:11:10;14.15;;;3.03;;
7737;SDS011;29398;45.328;5.558;2023-03-30T03:12:12;8.40;;;2.50;;
7737;SDS011;29398;45.328;5.558;2023-03-30T03:13:14;9.90;;;2.40;;
7737;SDS011;29398;45.328;5.558;2023-03-30T03:14:18;9.55;;;2.50;;
7737;SDS011;29398;45.328;5.558;2023-03-30T03:15:20;8.25;;;2.83;;
7737;SDS011;29398;45.328;5.558;2023-03-30T03:16:39;9.82;;;2.60;;
7737;SDS011;29398;45.328;5.558;2023-03-30T03:17:44;14.40;;;2.80;;
7737;SDS011;29398;45.328;5.558;2023-03-30T03:18:46;10.70;;;2.55;;
7737;SDS011;29398;45.328;5.558;2023-03-30T03:19:48;10.35;;;2.20;;
7737;SDS011;29398;45.328;5.558;2023-03-30T03:20:52;12.05;;;2.58;;
7737;SDS011;29398;45.328;5.558;2023-03-30T03:21:56;9.15;;;2.30;;
7737;SDS011;29398;45.328;5.558;2023-03-30T03:22:59;9.15;;;2.33;;
7737;SDS011;29398;45.328;5.558;2023-03-30T03:24:03;7.35;;;2.67;;
7737;SDS011;29398;45.328;5.558;2023-03-30T03:25:27;8.98;;;2.67;;
7737;SDS011;29398;45.328;5.558;2023-03-30T03:26:34;10.35;;;2.92;;
7737;SDS011;29398;45.328;5.558;2023-03-30T03:27:37;9.38;;;2.72;;
7737;SDS011;29398;45.328;5.558;2023-03-30T03:28:48;8.90;;;2.47;;
7737;SDS011;29398;45.328;5.558;2023-03-30T03:29:50;12.90;;;2.78;;
7737;SDS011;29398;45.328;5.558;2023-03-30T03:30:52;7.53;;;2.42;;
7737;SDS011;29398;45.328;5.558;2023-03-30T03:31:57;12.60;;;2.65;;
7737;SDS011;29398;45.328;5.558;2023-03-30T03:33:02;10.30;;;2.75;;
7737;SDS011;29398;45.328;5.558;2023-03-30T03:34:05;7.85;;;2.60;;
7737;SDS011;29398;45.328;5.558;2023-03-30T03:35:27;8.32;;;2.35;;
7737;SDS011;29398;45.328;5.558;2023-03-30T03:36:32;9.55;;;2.55;;
7737;SDS011;29398;45.328;5.558;2023-03-30T03:37:35;8.05;;;2.35;;
7737;SDS011;29398;45.328;5.558;2023-03-30T03:38:37;10.45;;;2.72;;
7737;SDS011;29398;45.328;5.558;2023-03-30T03:39:39;8.27;;;2.20;;
7737;SDS011;29398;45.328;5.558;2023-03-30T03:40:47;13.40;;;2.55;;
7737;SDS011;29398;45.328;5.558;2023-03-30T03:41:51;9.00;;;2.45;;
7737;SDS011;29398;45.328;5.558;2023-03-30T03:42:52;11.68;;;2.58;;
7737;SDS011;29398;45.328;5.558;2023-03-30T03:43:54;7.10;;;2.25;;
7737;SDS011;29398;45.328;5.558;2023-03-30T03:44:55;11.70;;;2.63;;
7737;SDS011;29398;45.328;5.558;2023-03-30T03:45:57;11.88;;;2.45;;
7737;SDS011;29398;45.328;5.558;2023-03-30T03:46:58;10.07;;;2.38;;
7737;SDS011;29398;45.328;5.558;2023-03-30T03:48:00;7.93;;;2.60;;
7737;SDS011;29398;45.328;5.558;2023-03-30T03:49:13;5.45;;;1.83;;
7737;SDS011;29398;45.328;5.558;2023-03-30T03:50:15;13.25;;;2.85;;
7737;SDS011;29398;45.328;5.558;2023-03-30T03:51:16;12.55;;;2.58;;
7737;SDS011;29398;45.328;5.558;2023-03-30T03:52:18;7.43;;;1.85;;
7737;SDS011;29398;45.328;5.558;2023-03-30T03:53:20;9.98;;;2.20;;
7737;SDS011;29398;45.328;5.558;2023-03-30T03:54:25;9.10;;;2.08;;
7737;SDS011;29398;45.328;5.558;2023-03-30T03:55:27;7.78;;;2.35;;
7737;SDS011;29398;45.328;5.558;2023-03-30T03:56:28;10.18;;;2.65;;
7737;SDS011;29398;45.328;5.558;2023-03-30T03:57:31;8.55;;;2.35;;
7737;SDS011;29398;45.328;5.558;2023-03-30T03:58:32;8.52;;;2.45;;
7737;SDS011;29398;45.328;5.558;2023-03-30T03:59:35;9.80;;;3.00;;
7737;SDS011;29398;45.328;5.558;2023-03-30T04:00:36;8.63;;;2.10;;
7737;SDS011;29398;45.328;5.558;2023-03-30T04:01:41;8.63;;;2.38;;
7737;SDS011;29398;45.328;5.558;2023-03-30T04:02:42;13.95;;;2.28;;
7737;SDS011;29398;45.328;5.558;2023-03-30T04:03:46;10.00;;;2.35;;
7737;SDS011;29398;45.328;5.558;2023-03-30T04:04:47;6.35;;;2.00;;
7737;SDS011;29398;45.328;5.558;2023-03-30T04:05:50;5.93;;;2.65;;
7737;SDS011;29398;45.328;5.558;2023-03-30T04:06:51;7.60;;;2.30;;
7737;SDS011;29398;45.328;5.558;2023-03-30T04:07:53;7.65;;;2.17;;
7737;SDS011;29398;45.328;5.558;2023-03-30T04:08:56;5.40;;;2.03;;
7737;SDS011;29398;45.328;5.558;2023-03-30T04:10:20;4.97;;;2.15;;
7737;SDS011;29398;45.328;5.558;2023-03-30T04:11:32;10.88;;;2.63;;
7737;SDS011;29398;45.328;5.558;2023-03-30T04:12:55;7.70;;;1.98;;
7737;SDS011;29398;45.328;5.558;2023-03-30T04:14:22;7.10;;;2.28;;
7737;SDS011;29398;45.328;5.558;2023-03-30T04:15:47;10.63;;;2.60;;
7737;SDS011;29398;45.328;5.558;2023-03-30T04:17:06;7.85;;;2.45;;
7737;SDS011;29398;45.328;5.558;2023-03-30T04:18:16;6.22;;;1.90;;
7737;SDS011;29398;45.328;5.558;2023-03-30T04:19:39;9.70;;;2.00;;
7737;SDS011;29398;45.328;5.558;2023-03-30T04:20:53;7.95;;;2.10;;
7737;SDS011;29398;45.328;5.558;2023-03-30T04:22:21;8.82;;;2.38;;
7737;SDS011;29398;45.328;5.558;2023-03-30T04:23:43;9.63;;;2.35;;
7737;SDS011;29398;45.328;5.558;2023-03-30T04:25:04;10.95;;;2.08;;
7737;SDS011;29398;45.328;5.558;2023-03-30T04:26:26;7.35;;;2.10;;
7737;SDS011;29398;45.328;5.558;2023-03-30T04:27:48;9.30;;;2.20;;
7737;SDS011;29398;45.328;5.558;2023-03-30T04:29:03;7.10;;;2.10;;
7737;SDS011;29398;45.328;5.558;2023-03-30T04:30:12;7.20;;;2.58;;
7737;SDS011;29398;45.328;5.558;2023-03-30T04:31:33;5.53;;;1.80;;
7737;SDS011;29398;45.328;5.558;2023-03-30T04:32:56;9.55;;;2.38;;
7737;SDS011;29398;45.328;5.558;2023-03-30T04:34:21;7.82;;;1.98;;
7737;SDS011;29398;45.328;5.558;2023-03-30T04:35:41;6.55;;;2.00;;
7737;SDS011;29398;45.328;5.558;2023-03-30T04:37:14;9.00;;;1.95;;
7737;SDS011;29398;45.328;5.558;2023-03-30T04:38:41;9.27;;;2.03;;
7737;SDS011;29398;45.328;5.558;2023-03-30T04:40:01;10.10;;;2.20;;
7737;SDS011;29398;45.328;5.558;2023-03-30T04:41:32;4.97;;;1.92;;
7737;SDS011;29398;45.328;5.558;2023-03-30T04:42:54;7.95;;;2.75;;
7737;SDS011;29398;45.328;5.558;2023-03-30T04:44:30;5.82;;;2.15;;
7737;SDS011;29398;45.328;5.558;2023-03-30T04:45:51;7.38;;;2.10;;
7737;SDS011;29398;45.328;5.558;2023-03-30T04:47:20;8.10;;;2.00;;
7737;SDS011;29398;45.328;5.558;2023-03-30T04:48:22;7.65;;;2.28;;
7737;SDS011;29398;45.328;5.558;2023-03-30T04:49:41;9.73;;;2.70;;
7737;SDS011;29398;45.328;5.558;2023-03-30T04:51:13;7.57;;;2.10;;
7737;SDS011;29398;45.328;5.558;2023-03-30T04:52:43;10.13;;;2.25;;
7737;SDS011;29398;45.328;5.558;2023-03-30T04:54:14;6.70;;;1.92;;
7737;SDS011;29398;45.328;5.558;2023-03-30T04:55:34;5.70;;;2.00;;
7737;SDS011;29398;45.328;5.558;2023-03-30T04:56:59;6.57;;;2.13;;
7737;SDS011;29398;45.328;5.558;2023-03-30T04:58:21;6.22;;;2.20;;
7737;SDS011;29398;45.328;5.558;2023-03-30T04:59:43;6.35;;;1.92;;
7737;SDS011;29398;45.328;5.558;2023-03-30T05:00:57;9.40;;;2.15;;
7737;SDS011;29398;45.328;5.558;2023-03-30T05:02:34;8.00;;;2.13;;
7737;SDS011;29398;45.328;5.558;2023-03-30T05:04:02;8.20;;;1.90;;
7737;SDS011;29398;45.328;5.558;2023-03-30T05:05:28;10.32;;;2.70;;
7737;SDS011;29398;45.328;5.558;2023-03-30T05:41:52;6.45;;;2.05;;
7737;SDS011;29398;45.328;5.558;2023-03-30T05:43:14;7.20;;;1.60;;
7737;SDS011;29398;45.328;5.558;2023-03-30T05:44:52;8.60;;;2.45;;
7737;SDS011;29398;45.328;5.558;2023-03-30T05:46:03;7.32;;;2.03;;
7737;SDS011;29398;45.328;5.558;2023-03-30T05:47:16;6.72;;;1.90;;
7737;SDS011;29398;45.328;5.558;2023-03-30T05:48:37;8.25;;;2.20;;
7737;SDS011;29398;45.328;5.558;2023-03-30T05:49:59;7.80;;;2.00;;
7737;SDS011;29398;45.328;5.558;2023-03-30T05:51:09;12.10;;;2.83;;
7737;SDS011;29398;45.328;5.558;2023-03-30T05:52:38;10.13;;;1.90;;
7737;SDS011;29398;45.328;5.558;2023-03-30T05:54:09;6.60;;;2.75;;
7737;SDS011;29398;45.328;5.558;2023-03-30T05:55:35;6.28;;;3.05;;
7737;SDS011;29398;45.328;5.558;2023-03-30T05:57:06;7.32;;;2.50;;
7737;SDS011;29398;45.328;5.558;2023-03-30T05:58:19;7.20;;;2.47;;
7737;SDS011;29398;45.328;5.558;2023-03-30T05:59:38;6.22;;;2.20;;
7737;SDS011;29398;45.328;5.558;2023-03-30T06:00:58;11.30;;;2.80;;
7737;SDS011;29398;45.328;5.558;2023-03-30T06:02:11;5.95;;;2.40;;
7737;SDS011;29398;45.328;5.558;2023-03-30T06:03:13;7.47;;;2.13;;
7737;SDS011;29398;45.328;5.558;2023-03-30T06:04:16;6.60;;;2.28;;
7737;SDS011;29398;45.328;5.558;2023-03-30T06:05:17;7.07;;;2.30;;
7737;SDS011;29398;45.328;5.558;2023-03-30T06:06:20;5.63;;;1.70;;
7737;SDS011;29398;45.328;5.558;2023-03-30T06:07:24;7.45;;;1.85;;
7737;SDS011;29398;45.328;5.558;2023-03-30T06:08:27;6.50;;;1.95;;
7737;SDS011;29398;45.328;5.558;2023-03-30T06:09:32;5.80;;;1.88;;
7737;SDS011;29398;45.328;5.558;2023-03-30T06:10:40;4.75;;;1.83;;
7737;SDS011;29398;45.328;5.558;2023-03-30T06:11:44;7.75;;;1.80;;
7737;SDS011;29398;45.328;5.558;2023-03-30T06:12:54;5.32;;;1.88;;
7737;SDS011;29398;45.328;5.558;2023-03-30T06:14:18;8.70;;;2.60;;
7737;SDS011;29398;45.328;5.558;2023-03-30T06:15:40;5.93;;;1.75;;
7737;SDS011;29398;45.328;5.558;2023-03-30T06:16:45;8.68;;;2.03;;
7737;SDS011;29398;45.328;5.558;2023-03-30T06:17:47;5.10;;;1.80;;
7737;SDS011;29398;45.328;5.558;2023-03-30T06:18:48;7.38;;;1.90;;
7737;SDS011;29398;45.328;5.558;2023-03-30T06:19:50;9.18;;;2.78;;
7737;SDS011;29398;45.328;5.558;2023-03-30T06:20:52;6.40;;;1.95;;
7737;SDS011;29398;45.328;5.558;2023-03-30T06:21:54;8.68;;;2.20;;
7737;SDS011;29398;45.328;5.558;2023-03-30T06:23:33;5.80;;;1.70;;
7737;SDS011;29398;45.328;5.558;2023-03-30T06:24:42;5.38;;;1.55;;
7737;SDS011;29398;45.328;5.558;2023-03-30T06:25:46;3.97;;;1.73;;
7737;SDS011;29398;45.328;5.558;2023-03-30T06:26:53;6.80;;;1.65;;
7737;SDS011;29398;45.328;5.558;2023-03-30T06:27:56;6.40;;;1.60;;
7737;SDS011;29398;45.328;5.558;2023-03-30T06:28:59;6.38;;;1.75;;
7737;SDS011;29398;45.328;5.558;2023-03-30T06:30:01;4.32;;;1.48;;
7737;SDS011;29398;45.328;5.558;2023-03-30T06:31:07;6.18;;;1.80;;
7737;SDS011;29398;45.328;5.558;2023-03-30T06:32:11;6.50;;;1.90;;
7737;SDS011;29398;45.328;5.558;2023-03-30T06:33:12;6.05;;;1.58;;
7737;SDS011;29398;45.328;5.558;2023-03-30T06:34:20;7.10;;;1.73;;
7737;SDS011;29398;45.328;5.558;2023-03-30T06:35:23;7.95;;;1.65;;
7737;SDS011;29398;45.328;5.558;2023-03-30T06:36:25;7.68;;;2.17;;
7737;SDS011;29398;45.328;5.558;2023-03-30T06:37:28;4.88;;;1.73;;
7737;SDS011;29398;45.328;5.558;2023-03-30T06:38:30;8.55;;;2.35;;
7737;SDS011;29398;45.328;5.558;2023-03-30T06:39:33;6.13;;;2.10;;
7737;SDS011;29398;45.328;5.558;2023-03-30T06:40:37;8.35;;;2.20;;
7737;SDS011;29398;45.328;5.558;2023-03-30T06:41:39;6.90;;;2.30;;
7737;SDS011;29398;45.328;5.558;2023-03-30T06:42:48;4.53;;;1.88;;
7737;SDS011;29398;45.328;5.558;2023-03-30T06:44:14;16.83;;;10.88;;
7737;SDS011;29398;45.328;5.558;2023-03-30T06:45:20;17.70;;;12.13;;
7737;SDS011;29398;45.328;5.558;2023-03-30T06:46:21;10.65;;;6.00;;
7737;SDS011;29398;45.328;5.558;2023-03-30T06:47:26;10.00;;;5.47;;
7737;SDS011;29398;45.328;5.558;2023-03-30T06:48:27;10.10;;;5.82;;
7737;SDS011;29398;45.328;5.558;2023-03-30T06:51:08;9.45;;;3.53;;
7737;SDS011;29398;45.328;5.558;2023-03-30T06:52:12;7.00;;;3.75;;
7737;SDS011;29398;45.328;5.558;2023-03-30T06:53:14;15.13;;;10.55;;
7737;SDS011;29398;45.328;5.558;2023-03-30T06:54:19;10.65;;;6.65;;
7737;SDS011;29398;45.328;5.558;2023-03-30T06:55:32;6.78;;;3.10;;
7737;SDS011;29398;45.328;5.558;2023-03-30T06:56:33;7.22;;;2.83;;
7737;SDS011;29398;45.328;5.558;2023-03-30T06:57:42;4.40;;;1.92;;
7737;SDS011;29398;45.328;5.558;2023-03-30T06:58:44;6.05;;;1.95;;
7737;SDS011;29398;45.328;5.558;2023-03-30T06:59:47;8.32;;;2.33;;
7737;SDS011;29398;45.328;5.558;2023-03-30T07:00:55;7.85;;;3.72;;
7737;SDS011;29398;45.328;5.558;2023-03-30T07:02:29;5.25;;;2.85;;
7737;SDS011;29398;45.328;5.558;2023-03-30T07:03:58;7.20;;;3.10;;
7737;SDS011;29398;45.328;5.558;2023-03-30T07:05:22;9.63;;;4.40;;
7737;SDS011;29398;45.328;5.558;2023-03-30T07:07:44;6.97;;;2.50;;
7737;SDS011;29398;45.328;5.558;2023-03-30T07:08:47;5.80;;;2.40;;
7737;SDS011;29398;45.328;5.558;2023-03-30T07:09:54;6.88;;;2.28;;
7737;SDS011;29398;45.328;5.558;2023-03-30T07:10:57;5.00;;;2.15;;
7737;SDS011;29398;45.328;5.558;2023-03-30T07:12:03;8.27;;;2.85;;
7737;SDS011;29398;45.328;5.558;2023-03-30T07:13:07;8.73;;;1.98;;
7737;SDS011;29398;45.328;5.558;2023-03-30T07:14:10;5.35;;;1.90;;
7737;SDS011;29398;45.328;5.558;2023-03-30T07:15:14;5.93;;;2.00;;
7737;SDS011;29398;45.328;5.558;2023-03-30T07:16:16;5.78;;;1.83;;
7737;SDS011;29398;45.328;5.558;2023-03-30T07:17:17;9.23;;;2.55;;
7737;SDS011;29398;45.328;5.558;2023-03-30T07:18:21;8.95;;;2.20;;
7737;SDS011;29398;45.328;5.558;2023-03-30T07:19:23;5.63;;;1.70;;
7737;SDS011;29398;45.328;5.558;2023-03-30T07:20:24;6.38;;;2.08;;
7737;SDS011;29398;45.328;5.558;2023-03-30T07:21:49;7.63;;;1.83;;
7737;SDS011;29398;45.328;5.558;2023-03-30T07:22:54;8.63;;;2.80;;
7737;SDS011;29398;45.328;5.558;2023-03-30T07:23:55;13.55;;;6.80;;
7737;SDS011;29398;45.328;5.558;2023-03-30T07:25:05;9.32;;;4.15;;
7737;SDS011;29398;45.328;5.558;2023-03-30T07:26:08;37.03;;;22.65;;
7737;SDS011;29398;45.328;5.558;2023-03-30T07:27:42;19.52;;;9.93;;
7737;SDS011;29398;45.328;5.558;2023-03-30T07:28:44;20.98;;;12.88;;
7737;SDS011;29398;45.328;5.558;2023-03-30T07:29:46;17.45;;;11.23;;
7737;SDS011;29398;45.328;5.558;2023-03-30T07:30:50;36.60;;;23.92;;
7737;SDS011;29398;45.328;5.558;2023-03-30T07:31:54;30.63;;;18.40;;
7737;SDS011;29398;45.328;5.558;2023-03-30T07:32:56;21.40;;;14.02;;
7737;SDS011;29398;45.328;5.558;2023-03-30T07:33:58;14.88;;;7.82;;
7737;SDS011;29398;45.328;5.558;2023-03-30T07:35:04;10.63;;;4.75;;
7737;SDS011;29398;45.328;5.558;2023-03-30T07:36:06;8.10;;;3.35;;
7737;SDS011;29398;45.328;5.558;2023-03-30T07:37:08;5.05;;;2.47;;
7737;SDS011;29398;45.328;5.558;2023-03-30T07:38:11;5.10;;;2.17;;
7737;SDS011;29398;45.328;5.558;2023-03-30T07:39:17;6.00;;;2.53;;
7737;SDS011;29398;45.328;5.558;2023-03-30T07:40:21;5.80;;;2.00;;
7737;SDS011;29398;45.328;5.558;2023-03-30T07:41:23;6.90;;;2.08;;
7737;SDS011;29398;45.328;5.558;2023-03-30T07:42:30;11.20;;;6.55;;
7737;SDS011;29398;45.328;5.558;2023-03-30T07:43:32;21.75;;;12.45;;